createdAt,value
2018-05-18T00:00:57.560Z,99046.73
2018-05-18T00:03:25.156Z,99045.80
2018-05-18T00:05:52.897Z,99046.84
2018-05-18T00:08:20.701Z,99044.55
2018-05-18T00:10:48.433Z,99046.70
2018-05-18T00:13:16.242Z,99051.25
2018-05-18T00:15:43.835Z,99057.42
2018-05-18T00:18:11.639Z,99054.92
2018-05-18T00:20:39.241Z,99053.92
2018-05-18T00:23:06.841Z,99058.09
2018-05-18T00:25:34.444Z,99053.34
2018-05-18T00:28:02.247Z,99048.42
2018-05-18T00:30:30.066Z,99048.58
2018-05-18T00:32:57.680Z,99049.16
2018-05-18T00:35:25.269Z,99048.02
2018-05-18T00:37:53.121Z,99048.44
2018-05-18T00:40:20.818Z,99043.66
2018-05-18T00:42:48.451Z,99042.83
2018-05-18T00:45:16.275Z,99046.92
2018-05-18T00:47:44.093Z,99042.67
2018-05-18T00:50:11.913Z,99045.33
2018-05-18T00:52:39.731Z,99042.36
2018-05-18T00:55:19.105Z,99042.42
2018-05-18T00:57:47.009Z,99044.09
2018-05-18T01:00:14.633Z,99040.16
2018-05-18T01:02:42.446Z,99034.84
2018-05-18T01:05:10.034Z,99036.39
2018-05-18T01:07:37.624Z,99036.08
2018-05-18T01:10:05.249Z,99043.09
2018-05-18T01:12:32.832Z,99044.76
2018-05-18T01:15:00.448Z,99034.30
2018-05-18T01:17:28.038Z,99031.52
2018-05-18T01:19:55.684Z,99033.52
2018-05-18T01:22:23.493Z,99039.00
2018-05-18T01:24:51.086Z,99045.34
2018-05-18T01:27:18.929Z,99043.77
2018-05-18T01:29:46.636Z,99040.58
2018-05-18T01:32:14.242Z,99037.28
2018-05-18T01:34:41.829Z,99039.73
2018-05-18T01:37:09.500Z,99033.61
2018-05-18T01:39:37.085Z,99030.84
2018-05-18T01:42:05.735Z,99028.28
2018-05-18T01:44:33.343Z,99027.02
2018-05-18T01:47:00.941Z,99027.17
2018-05-18T01:49:28.534Z,99035.49
2018-05-18T01:51:56.297Z,99036.22
2018-05-18T01:54:23.888Z,99034.84
2018-05-18T01:56:51.477Z,99026.48
2018-05-18T01:59:19.266Z,99038.81
2018-05-18T02:01:47.084Z,99032.81
2018-05-18T02:04:14.905Z,99036.04
2018-05-18T02:06:42.722Z,99039.48
2018-05-18T02:09:10.304Z,99034.88
2018-05-18T02:11:37.900Z,99036.72
2018-05-18T02:14:05.498Z,99033.45
2018-05-18T02:16:33.201Z,99029.03
2018-05-18T02:19:01.956Z,99024.95
2018-05-18T02:21:29.556Z,99028.49
2018-05-18T02:23:57.351Z,99023.80
2018-05-18T02:26:25.002Z,99020.77
2018-05-18T02:28:52.769Z,99018.73
2018-05-18T02:31:20.352Z,99018.05
2018-05-18T02:33:48.105Z,99020.70
2018-05-18T02:36:15.688Z,99020.50
2018-05-18T02:38:43.459Z,99028.87
2018-05-18T02:41:11.291Z,99027.39
2018-05-18T02:43:38.924Z,99031.05
2018-05-18T02:46:06.545Z,99036.06
2018-05-18T02:48:34.150Z,99043.46
2018-05-18T02:51:01.966Z,99043.64
2018-05-18T02:53:29.769Z,99053.08
2018-05-18T02:55:57.359Z,99054.19
2018-05-18T02:58:25.106Z,99049.73
2018-05-18T03:00:52.698Z,99049.63
2018-05-18T03:03:20.277Z,99048.23
2018-05-18T03:05:47.865Z,99048.70
2018-05-18T03:08:15.463Z,99044.33
2018-05-18T03:10:43.137Z,99044.90
2018-05-18T03:13:10.644Z,99046.27
2018-05-18T03:15:38.251Z,99046.67
2018-05-18T03:18:06.049Z,99048.01
2018-05-18T03:20:33.625Z,99050.67
2018-05-18T03:23:01.253Z,99051.94
2018-05-18T03:25:28.976Z,99048.75
2018-05-18T03:27:56.653Z,99061.26
2018-05-18T03:30:24.237Z,99058.98
2018-05-18T03:32:51.962Z,99062.33
2018-05-18T03:35:19.676Z,99059.67
2018-05-18T03:37:47.269Z,99057.35
2018-05-18T03:40:14.876Z,99059.55
2018-05-18T03:42:42.592Z,99063.02
2018-05-18T03:45:10.449Z,99062.92
2018-05-18T03:47:38.021Z,99055.44
2018-05-18T03:50:05.616Z,99052.72
2018-05-18T03:52:33.245Z,99056.95
2018-05-18T03:55:00.856Z,99056.73
2018-05-18T03:57:28.447Z,99057.03
2018-05-18T03:59:56.024Z,99052.95
2018-05-18T04:02:35.314Z,99050.72
2018-05-18T04:05:14.466Z,99042.42
2018-05-18T04:07:57.715Z,99046.92
2018-05-18T04:10:25.334Z,99047.82
2018-05-18T04:12:53.182Z,99040.95
2018-05-18T04:15:20.756Z,99040.38
2018-05-18T04:17:48.332Z,99040.55
2018-05-18T04:20:15.929Z,99051.14
2018-05-18T04:22:44.123Z,99059.79
2018-05-18T04:25:11.712Z,99054.27
2018-05-18T04:27:39.294Z,99061.58
2018-05-18T04:30:07.179Z,99061.83
2018-05-18T04:32:35.534Z,99060.88
2018-05-18T04:35:03.144Z,99065.95
2018-05-18T04:37:30.968Z,99066.88
2018-05-18T04:39:58.540Z,99062.63
2018-05-18T04:42:26.125Z,99066.22
2018-05-18T04:44:53.709Z,99067.89
2018-05-18T04:47:21.545Z,99063.89
2018-05-18T04:49:49.360Z,99065.93
2018-05-18T04:52:16.944Z,99067.40
2018-05-18T04:54:44.695Z,99065.95
2018-05-18T04:57:12.514Z,99066.38
2018-05-18T04:59:40.096Z,99059.98
2018-05-18T05:02:07.675Z,99055.66
2018-05-18T05:04:35.468Z,99062.78
2018-05-18T05:07:03.069Z,99056.40
2018-05-18T05:09:30.667Z,99058.36
2018-05-18T05:11:58.262Z,99058.37
2018-05-18T05:14:25.841Z,99066.25
2018-05-18T05:16:53.457Z,99065.14
2018-05-18T05:19:21.277Z,99067.91
2018-05-18T05:21:48.848Z,99065.45
2018-05-18T05:24:16.428Z,99062.62
2018-05-18T05:26:44.026Z,99063.42
2018-05-18T05:29:11.616Z,99054.07
2018-05-18T05:31:39.246Z,99070.02
2018-05-18T05:34:06.823Z,99067.83
2018-05-18T05:36:34.654Z,99061.88
2018-05-18T05:39:02.233Z,99062.35
2018-05-18T05:41:29.817Z,99062.44
2018-05-18T05:43:57.403Z,99064.88
2018-05-18T05:46:25.176Z,99062.50
2018-05-18T05:48:52.902Z,99063.42
2018-05-18T05:51:20.710Z,99059.56
2018-05-18T05:53:48.291Z,99053.45
2018-05-18T05:56:16.048Z,99049.48
2018-05-18T05:58:43.620Z,99040.20
2018-05-18T06:01:11.350Z,99045.02
2018-05-18T06:03:38.936Z,99047.59
2018-05-18T06:06:06.523Z,99059.30
2018-05-18T06:08:34.132Z,99055.39
2018-05-18T06:11:01.958Z,99057.28
2018-05-18T06:13:29.774Z,99053.98
2018-05-18T06:15:57.361Z,99053.80
2018-05-18T06:18:24.936Z,99047.42
2018-05-18T06:20:52.509Z,99049.88
2018-05-18T06:23:20.225Z,99050.56
2018-05-18T06:25:47.943Z,99050.94
2018-05-18T06:28:15.539Z,99049.45
2018-05-18T06:30:43.144Z,99046.90
2018-05-18T06:33:10.735Z,99044.16
2018-05-18T06:35:38.450Z,99052.76
2018-05-18T06:38:06.062Z,99051.72
2018-05-18T06:40:33.873Z,99044.45
2018-05-18T06:43:01.694Z,99043.75
2018-05-18T06:45:29.273Z,99041.61
2018-05-18T06:47:56.842Z,99038.73
2018-05-18T06:50:24.526Z,99036.74
2018-05-18T06:52:52.144Z,99040.45
2018-05-18T06:55:19.732Z,99035.64
2018-05-18T06:57:47.559Z,99033.12
2018-05-18T07:00:15.197Z,99039.32
2018-05-18T07:02:42.781Z,99037.14
2018-05-18T07:05:10.370Z,99029.20
2018-05-18T07:07:38.176Z,99033.50
2018-05-18T07:10:05.781Z,99038.13
2018-05-18T07:12:33.384Z,99029.11
2018-05-18T07:15:01.102Z,99022.97
2018-05-18T07:17:28.700Z,99022.20
2018-05-18T07:19:56.280Z,99025.23
2018-05-18T07:22:23.861Z,99025.09
2018-05-18T07:24:51.441Z,99021.11
2018-05-18T07:27:19.020Z,99021.88
2018-05-18T07:29:46.832Z,99023.59
2018-05-18T07:32:14.405Z,99024.20
2018-05-18T07:34:42.139Z,99024.02
2018-05-18T07:37:09.855Z,99027.94
2018-05-18T07:39:37.440Z,99030.69
2018-05-18T07:42:05.223Z,99033.75
2018-05-18T07:44:33.041Z,99033.20
2018-05-18T07:47:00.606Z,99033.09
2018-05-18T07:49:28.267Z,99033.95
2018-05-18T07:51:55.853Z,99031.55
2018-05-18T07:54:23.617Z,99031.49
2018-05-18T07:56:51.433Z,99036.69
2018-05-18T07:59:19.252Z,99026.09
2018-05-18T08:01:46.836Z,99029.70
2018-05-18T08:04:14.456Z,99029.88
2018-05-18T08:06:42.047Z,99023.27
2018-05-18T08:09:09.616Z,99020.11
2018-05-18T08:11:37.205Z,99024.89
2018-05-18T08:14:04.837Z,99027.86
2018-05-18T08:16:32.460Z,99019.34
2018-05-18T08:19:00.049Z,99020.52
2018-05-18T08:21:27.658Z,99011.81
2018-05-18T08:23:55.236Z,99021.50
2018-05-18T08:26:22.828Z,99022.86
2018-05-18T08:29:02.168Z,99025.15
2018-05-18T08:31:29.831Z,99025.34
2018-05-18T08:33:57.403Z,99018.64
2018-05-18T08:36:25.071Z,99021.31
2018-05-18T08:38:52.910Z,99020.34
2018-05-18T08:41:20.491Z,99026.88
2018-05-18T08:43:49.022Z,99033.27
2018-05-18T08:46:16.626Z,99026.30
2018-05-18T08:48:44.199Z,99030.27
2018-05-18T08:51:11.796Z,99027.55
2018-05-18T08:53:39.487Z,99027.34
2018-05-18T08:56:07.133Z,99026.83
2018-05-18T08:58:34.726Z,99022.06
2018-05-18T09:01:02.308Z,99014.04
2018-05-18T09:03:29.928Z,99007.39
2018-05-18T09:05:57.505Z,99003.21
2018-05-18T09:08:25.301Z,99002.41
2018-05-18T09:10:52.891Z,99008.02
2018-05-18T09:13:20.738Z,99006.89
2018-05-18T09:15:48.324Z,99002.41
2018-05-18T09:18:16.077Z,99009.73
2018-05-18T09:20:43.898Z,98998.08
2018-05-18T09:23:11.607Z,98995.77
2018-05-18T09:25:39.228Z,98999.81
2018-05-18T09:28:06.895Z,99001.06
2018-05-18T09:30:34.691Z,99000.09
2018-05-18T09:33:02.518Z,99000.86
2018-05-18T09:35:30.529Z,98993.16
2018-05-18T09:37:58.261Z,99002.87
2018-05-18T09:40:26.004Z,99003.68
2018-05-18T09:42:53.793Z,99004.23
2018-05-18T09:45:21.422Z,99003.81
2018-05-18T09:47:49.164Z,98999.70
2018-05-18T09:50:16.893Z,99005.19
2018-05-18T09:52:44.513Z,99005.88
2018-05-18T09:55:12.424Z,98999.94
2018-05-18T09:57:39.913Z,98996.78
2018-05-18T10:00:07.535Z,98996.68
2018-05-18T10:02:35.112Z,98983.98
2018-05-18T10:05:02.769Z,98987.08
2018-05-18T10:07:30.584Z,98983.03
2018-05-18T10:09:58.164Z,98976.20
2018-05-18T10:12:25.809Z,98977.25
2018-05-18T10:14:53.360Z,98979.27
2018-05-18T10:17:21.129Z,98972.41
2018-05-18T10:19:49.065Z,98964.03
2018-05-18T10:22:16.705Z,98965.82
2018-05-18T10:24:44.381Z,98968.50
2018-05-18T10:27:12.220Z,98961.88
2018-05-18T10:29:40.138Z,98958.20
2018-05-18T10:32:07.709Z,98953.53
2018-05-18T10:34:35.295Z,98948.46
2018-05-18T10:37:02.979Z,98945.78
2018-05-18T10:39:30.625Z,98945.14
2018-05-18T10:41:58.384Z,98952.26
2018-05-18T10:44:26.122Z,98923.03
2018-05-18T10:46:54.646Z,98945.88
2018-05-18T10:49:22.247Z,98942.41
2018-05-18T10:51:49.837Z,98942.81
2018-05-18T10:54:17.557Z,98940.84
2018-05-18T10:56:45.200Z,98934.06
2018-05-18T10:59:12.772Z,98934.40
2018-05-18T11:01:40.383Z,98932.15
2018-05-18T11:04:08.197Z,98930.65
2018-05-18T11:06:35.792Z,98929.48
2018-05-18T11:09:03.512Z,98920.25
2018-05-18T11:11:31.253Z,98916.67
2018-05-18T11:13:58.911Z,98915.70
2018-05-18T11:16:26.473Z,98914.16
2018-05-18T11:18:54.204Z,98916.98
2018-05-18T11:21:21.913Z,98917.55
2018-05-18T11:23:49.741Z,98910.77
2018-05-18T11:26:17.353Z,98909.94
2018-05-18T11:28:44.951Z,98908.33
2018-05-18T11:31:12.547Z,98903.47
2018-05-18T11:33:40.316Z,98904.45
2018-05-18T11:36:07.949Z,98898.83
2018-05-18T11:38:35.831Z,98895.42
2018-05-18T11:41:03.459Z,98894.03
2018-05-18T11:43:31.766Z,98900.38
2018-05-18T11:45:59.352Z,98899.50
2018-05-18T11:48:26.928Z,98894.65
2018-05-18T11:50:54.743Z,98888.00
2018-05-18T11:53:22.563Z,98885.27
2018-05-18T11:55:50.141Z,98875.38
2018-05-18T11:58:17.713Z,98874.89
2018-05-18T12:00:45.284Z,98870.99
2018-05-18T12:03:13.026Z,98870.65
2018-05-18T12:05:40.607Z,98874.07
2018-05-18T12:08:08.484Z,98865.80
2018-05-18T12:10:36.064Z,98872.61
2018-05-18T12:13:03.841Z,98858.86
2018-05-18T12:15:32.141Z,98858.63
2018-05-18T12:17:59.729Z,98847.06
2018-05-18T12:20:27.402Z,98845.41
2018-05-18T12:22:55.116Z,98843.97
2018-05-18T12:25:22.744Z,98845.76
2018-05-18T12:27:50.323Z,98846.95
2018-05-18T12:30:17.896Z,98838.11
2018-05-18T12:32:45.689Z,98840.69
2018-05-18T12:35:13.509Z,98840.58
2018-05-18T12:37:41.327Z,98820.92
2018-05-18T12:40:08.919Z,98823.77
2018-05-18T12:42:36.554Z,98810.42
2018-05-18T12:45:04.381Z,98801.62
2018-05-18T12:47:31.967Z,98812.40
2018-05-18T12:49:59.572Z,98808.79
2018-05-18T12:52:27.245Z,98816.62
2018-05-18T12:54:55.053Z,98815.81
2018-05-18T12:57:22.637Z,98811.00
2018-05-18T12:59:50.272Z,98815.55
2018-05-18T13:02:17.864Z,98813.77
2018-05-18T13:04:45.441Z,98812.89
2018-05-18T13:07:13.221Z,98805.17
2018-05-18T13:09:40.813Z,98807.59
2018-05-18T13:12:08.400Z,98804.70
2018-05-18T13:14:35.976Z,98807.30
2018-05-18T13:17:03.613Z,98807.72
2018-05-18T13:19:31.192Z,98805.23
2018-05-18T13:21:59.052Z,98808.57
2018-05-18T13:24:26.629Z,98803.71
2018-05-18T13:26:54.239Z,98800.09
2018-05-18T13:29:21.824Z,98795.80
2018-05-18T13:31:49.406Z,98792.16
2018-05-18T13:34:17.242Z,98786.03
2018-05-18T13:36:44.827Z,98780.08
2018-05-18T13:39:12.405Z,98776.28
2018-05-18T13:41:40.195Z,98781.34
2018-05-18T13:44:07.781Z,98776.88
2018-05-18T13:46:35.382Z,98779.62
2018-05-18T13:49:02.993Z,98772.23
2018-05-18T13:51:30.637Z,98764.18
2018-05-18T13:53:58.237Z,98769.44
2018-05-18T13:56:25.824Z,98774.11
2018-05-18T13:58:53.626Z,98766.86
2018-05-18T14:01:21.441Z,98765.70
2018-05-18T14:03:49.259Z,98764.72
2018-05-18T14:06:16.866Z,98764.45
2018-05-18T14:08:44.649Z,98766.17
2018-05-18T14:11:12.228Z,98772.14
2018-05-18T14:13:39.821Z,98767.98
2018-05-18T14:16:07.416Z,98769.75
2018-05-18T14:18:34.991Z,98763.14
2018-05-18T14:21:02.692Z,98755.65
2018-05-18T14:23:30.211Z,98755.32
2018-05-18T14:25:57.840Z,98747.92
2018-05-18T14:28:25.428Z,98749.78
2018-05-18T14:30:53.032Z,98750.18
2018-05-18T14:33:20.619Z,98754.23
2018-05-18T14:35:48.410Z,98762.99
2018-05-18T14:38:16.041Z,98753.63
2018-05-18T14:40:43.696Z,98760.25
2018-05-18T14:43:11.377Z,98760.22
2018-05-18T14:45:39.164Z,98762.81
2018-05-18T14:48:06.838Z,98767.17
2018-05-18T14:50:34.369Z,98771.88
2018-05-18T14:53:01.948Z,98779.77
2018-05-18T14:55:29.540Z,98781.06
2018-05-18T14:57:57.144Z,98769.70
2018-05-18T15:00:24.997Z,98759.23
2018-05-18T15:02:52.584Z,98777.38
2018-05-18T15:05:20.180Z,98774.10
2018-05-18T15:07:47.784Z,98769.13
2018-05-18T15:10:15.378Z,98768.84
2018-05-18T15:12:42.964Z,98764.05
2018-05-18T15:15:10.674Z,98762.59
2018-05-18T15:17:38.524Z,98771.29
2018-05-18T15:20:06.129Z,98769.37
2018-05-18T15:22:33.874Z,98768.41
2018-05-18T15:25:01.563Z,98781.20
2018-05-18T15:27:29.156Z,98796.83
2018-05-18T15:29:56.743Z,98800.23
2018-05-18T15:32:24.433Z,98796.78
2018-05-18T15:34:52.345Z,98796.71
2018-05-18T15:37:19.970Z,98793.98
2018-05-18T15:39:47.506Z,98796.59
2018-05-18T15:42:15.110Z,98795.39
2018-05-18T15:44:42.808Z,98795.42
2018-05-18T15:47:10.539Z,98792.32
2018-05-18T15:49:38.361Z,98788.06
2018-05-18T15:52:06.015Z,98780.52
2018-05-18T15:54:33.607Z,98786.91
2018-05-18T15:57:01.204Z,98777.36
2018-05-18T15:59:28.793Z,98775.52
2018-05-18T16:01:56.385Z,98784.00
2018-05-18T16:04:24.025Z,98771.91
2018-05-18T16:06:51.606Z,98771.09
2018-05-18T16:09:19.241Z,98775.81
2018-05-18T16:11:46.822Z,98777.44
2018-05-18T16:14:14.412Z,98776.44
2018-05-18T16:16:42.045Z,98795.05
2018-05-18T16:19:09.623Z,98804.03
2018-05-18T16:21:37.232Z,98810.50
2018-05-18T16:24:04.922Z,98820.09
2018-05-18T16:26:32.799Z,98824.25
2018-05-18T16:29:00.651Z,98834.25
2018-05-18T16:31:28.468Z,98838.20
2018-05-18T16:33:56.197Z,98841.50
2018-05-18T16:36:23.768Z,98839.41
2018-05-18T16:38:51.626Z,98832.92
2018-05-18T16:41:19.207Z,98829.88
2018-05-18T16:43:46.958Z,98823.88
2018-05-18T16:46:14.780Z,98818.06
2018-05-18T16:48:42.510Z,98806.16
2018-05-18T16:51:10.163Z,98810.25
2018-05-18T16:53:37.737Z,98813.92
2018-05-18T16:56:05.294Z,98815.62
2018-05-18T16:58:32.884Z,98819.99
2018-05-18T17:01:00.460Z,98821.11
2018-05-18T17:03:28.102Z,98826.59
2018-05-18T17:05:55.689Z,98817.53
2018-05-18T17:08:23.268Z,98818.43
2018-05-18T17:10:51.057Z,98835.21
2018-05-18T17:13:18.644Z,98842.71
2018-05-18T17:15:46.300Z,98848.48
2018-05-18T17:18:13.905Z,98843.98
2018-05-18T17:20:41.670Z,98843.37
2018-05-18T17:23:09.249Z,98839.72
2018-05-18T17:25:37.069Z,98839.42
2018-05-18T17:28:04.680Z,98833.81
2018-05-18T17:30:32.273Z,98836.39
2018-05-18T17:33:00.158Z,98847.31
2018-05-18T17:35:27.772Z,98843.98
2018-05-18T17:37:55.416Z,98849.69
2018-05-18T17:40:23.028Z,98847.34
2018-05-18T17:42:50.617Z,98849.70
2018-05-18T17:45:18.511Z,98841.98
2018-05-18T17:47:46.097Z,98852.31
2018-05-18T17:50:14.721Z,98855.65
2018-05-18T17:52:42.372Z,98856.58
2018-05-18T17:55:10.157Z,98852.91
2018-05-18T17:57:37.806Z,98847.71
2018-05-18T18:00:06.027Z,98838.11
2018-05-18T18:02:34.028Z,98834.31
2018-05-18T18:05:01.646Z,98848.05
2018-05-18T18:07:29.276Z,98857.70
2018-05-18T18:09:56.852Z,98871.44
2018-05-18T18:12:24.483Z,98863.84
2018-05-18T18:14:52.080Z,98871.13
2018-05-18T18:17:19.770Z,98890.10
2018-05-18T18:19:47.370Z,98908.74
2018-05-18T18:22:14.969Z,98910.47
2018-05-18T18:24:42.561Z,98910.73
2018-05-18T18:27:10.129Z,98917.77
2018-05-18T18:29:37.765Z,98926.52
2018-05-18T18:32:05.365Z,98931.14
2018-05-18T18:34:32.980Z,98935.22
2018-05-18T18:37:00.637Z,98946.17
2018-05-18T18:39:28.236Z,98949.70
2018-05-18T18:41:55.913Z,98959.66
2018-05-18T18:44:23.493Z,98951.86
2018-05-18T18:46:51.241Z,98958.42
2018-05-18T18:49:18.826Z,98968.91
2018-05-18T18:51:46.909Z,98969.58
2018-05-18T18:54:14.703Z,98961.59
2018-05-18T18:56:42.288Z,98964.90
2018-05-18T18:59:09.878Z,98946.58
2018-05-18T19:01:37.456Z,98954.28
2018-05-18T19:04:05.121Z,98955.78
2018-05-18T19:06:32.827Z,98956.45
2018-05-18T19:09:00.428Z,98954.00
2018-05-18T19:11:28.021Z,98955.98
2018-05-18T19:13:55.663Z,98950.84
2018-05-18T19:16:23.453Z,98944.38
2018-05-18T19:18:51.305Z,98931.52
2018-05-18T19:21:18.959Z,98935.00
2018-05-18T19:23:46.633Z,98939.91
2018-05-18T19:26:14.253Z,98936.73
2018-05-18T19:28:41.880Z,98935.60
2018-05-18T19:31:09.480Z,98919.73
2018-05-18T19:33:37.315Z,98922.95
2018-05-18T19:36:05.133Z,98916.80
2018-05-18T19:38:32.791Z,98911.77
2018-05-18T19:41:00.486Z,98905.31
2018-05-18T19:43:28.081Z,98900.11
2018-05-18T19:45:55.817Z,98895.16
2018-05-18T19:48:23.400Z,98896.23
2018-05-18T19:50:50.997Z,98883.67
2018-05-18T19:53:18.590Z,98884.12
2018-05-18T19:55:46.232Z,98888.03
2018-05-18T19:58:13.823Z,98898.32
2018-05-18T20:00:41.392Z,98912.53
2018-05-18T20:03:09.232Z,98924.45
2018-05-18T20:05:37.051Z,98936.12
2018-05-18T20:08:04.673Z,98950.27
2018-05-18T20:10:32.248Z,98963.45
2018-05-18T20:13:00.105Z,98973.73
2018-05-18T20:15:27.678Z,98975.34
2018-05-18T20:17:55.319Z,98968.78
2018-05-18T20:20:23.160Z,98973.66
2018-05-18T20:22:50.893Z,98970.97
2018-05-18T20:25:18.697Z,98969.67
2018-05-18T20:27:46.516Z,98969.31
2018-05-18T20:30:14.334Z,98969.30
2018-05-18T20:32:42.153Z,98964.89
2018-05-18T20:35:09.971Z,98963.75
2018-05-18T20:37:37.565Z,98960.77
2018-05-18T20:40:05.176Z,98962.42
2018-05-18T20:42:32.765Z,98954.84
2018-05-18T20:45:00.385Z,98955.69
2018-05-18T20:47:28.082Z,98957.18
2018-05-18T20:49:55.676Z,98955.46
2018-05-18T20:52:23.257Z,98953.02
2018-05-18T20:54:50.852Z,98949.64
2018-05-18T20:57:18.596Z,98950.66
2018-05-18T20:59:46.188Z,98948.52
2018-05-18T21:02:13.800Z,98946.08
2018-05-18T21:04:41.438Z,98939.88
2018-05-18T21:07:09.027Z,98937.05
2018-05-18T21:09:36.608Z,98939.78
2018-05-18T21:12:04.230Z,98930.25
2018-05-18T21:14:31.987Z,98924.61
2018-05-18T21:16:59.591Z,98913.80
2018-05-18T21:19:27.178Z,98913.39
2018-05-18T21:21:54.981Z,98902.47
2018-05-18T21:24:22.799Z,98905.33
2018-05-18T21:26:50.618Z,98902.78
2018-05-18T21:29:18.204Z,98897.42
2018-05-18T21:31:45.865Z,98889.09
2018-05-18T21:34:13.469Z,98889.81
2018-05-18T21:36:41.046Z,98884.56
2018-05-18T21:39:08.690Z,98879.61
2018-05-18T21:41:36.527Z,98873.12
2018-05-18T21:44:04.120Z,98867.45
2018-05-18T21:46:31.931Z,98866.66
2018-05-18T21:48:59.510Z,98872.45
2018-05-18T21:51:27.299Z,98874.36
2018-05-18T21:53:54.889Z,98869.16
2018-05-18T21:56:22.477Z,98871.86
2018-05-18T21:58:50.063Z,98871.50
2018-05-18T22:01:17.652Z,98873.52
2018-05-18T22:03:45.492Z,98871.39
2018-05-18T22:06:13.070Z,98873.06
2018-05-18T22:08:40.926Z,98874.06
2018-05-18T22:11:08.502Z,98867.80
2018-05-18T22:13:36.262Z,98880.86
2018-05-18T22:16:03.888Z,98880.80
2018-05-18T22:18:31.602Z,98883.52
2018-05-18T22:20:59.365Z,98888.70
2018-05-18T22:23:26.940Z,98888.63
2018-05-18T22:25:54.754Z,98884.59
2018-05-18T22:28:22.337Z,98888.13
2018-05-18T22:30:49.911Z,98882.70
2018-05-18T22:33:17.500Z,98886.64
2018-05-18T22:35:45.057Z,98896.07
2018-05-18T22:38:12.944Z,98893.41
2018-05-18T22:40:40.763Z,98900.91
2018-05-18T22:43:08.354Z,98902.70
2018-05-18T22:45:35.937Z,98894.11
2018-05-18T22:48:03.512Z,98896.80
2018-05-18T22:50:31.126Z,98895.13
2018-05-18T22:52:58.952Z,98896.78
2018-05-18T22:55:26.561Z,98898.48
2018-05-18T22:57:54.145Z,98895.47
2018-05-18T23:00:29.637Z,98898.21
2018-05-18T23:02:57.269Z,98898.95
2018-05-18T23:05:24.850Z,98896.20
2018-05-18T23:07:52.496Z,98888.86
2018-05-18T23:10:20.084Z,98887.13
2018-05-18T23:12:47.825Z,98876.09
2018-05-18T23:15:15.398Z,98891.02
2018-05-18T23:17:42.972Z,98902.52
2018-05-18T23:20:10.689Z,98915.63
2018-05-18T23:22:38.268Z,98928.73
2018-05-18T23:25:05.907Z,98925.80
2018-05-18T23:27:33.501Z,98920.07
2018-05-18T23:30:01.249Z,98908.47
2018-05-18T23:32:28.844Z,98905.56
2018-05-18T23:34:56.567Z,98909.72
2018-05-18T23:37:24.406Z,98913.07
2018-05-18T23:39:52.350Z,98912.45
2018-05-18T23:42:19.992Z,98906.07
2018-05-18T23:44:47.582Z,98905.20
2018-05-18T23:47:15.378Z,98905.59
2018-05-18T23:49:42.964Z,98902.72
2018-05-18T23:52:10.557Z,98906.34
2018-05-18T23:54:38.148Z,98902.96
2018-05-18T23:57:05.731Z,98908.97
2018-05-18T23:59:33.573Z,98905.42
